Terminal Aerodrome Forecast
Issued by NWS Cleveland, OH

Home | Current Version | Previous Version | Graphics & Text | Print | Product List | Glossary On
Versions: 1 2 3 4 5 6 7 8 9 10 11 12
000
FTUS41 KCLE 230536 CCA
TAFERI
TAF COR
KERI 230536Z 2306/2406 14004KT P6SM VCSH SCT030 BKN070
     FM230900 VRB03KT 6SM BR BKN015 BKN020
     FM231400 VRB03KT P6SM SCT017 BKN025
     FM231600 29006KT P6SM SCT019 BKN035 PROB30 2316/2322 4SM TS
      BKN024CB
     FM232300 31005KT P6SM FEW035 SCT100
     FM240300 24004KT P6SM FEW040 SCT060=

USA.gov is the U.S. government's official web portal to all federal, state and local government web resources and services.